createdAt,value
2019-04-25T00:00:48.736Z,21.07
2019-04-25T00:03:22.304Z,20.40
2019-04-25T00:05:52.291Z,20.03
2019-04-25T00:08:21.538Z,23.03
2019-04-25T00:10:51.646Z,20.27
2019-04-25T00:13:21.792Z,18.93
2019-04-25T00:15:51.848Z,23.17
2019-04-25T00:18:22.099Z,25.17
2019-04-25T00:20:55.564Z,20.93
2019-04-25T00:23:24.111Z,21.50
2019-04-25T00:26:11.311Z,19.43
2019-04-25T00:28:42.031Z,23.23
2019-04-25T00:31:11.975Z,18.30
2019-04-25T00:33:41.354Z,21.63
2019-04-25T00:36:12.059Z,22.73
2019-04-25T00:38:42.919Z,24.10
2019-04-25T00:41:11.632Z,19.13
2019-04-25T00:43:42.182Z,17.07
2019-04-25T00:46:11.433Z,20.90
2019-04-25T00:48:41.498Z,23.20
2019-04-25T00:51:11.762Z,22.47
2019-04-25T00:53:41.808Z,19.07
2019-04-25T00:56:11.264Z,23.83
2019-04-25T00:58:51.399Z,21.97
2019-04-25T01:01:31.737Z,21.10
2019-04-25T01:04:01.955Z,27.03
2019-04-25T01:06:31.926Z,24.33
2019-04-25T01:09:01.504Z,19.90
2019-04-25T01:11:31.402Z,20.40
2019-04-25T01:13:59.913Z,19.57
2019-04-25T01:16:28.427Z,23.73
2019-04-25T01:18:57.633Z,18.73
2019-04-25T01:21:26.224Z,21.00
2019-04-25T01:23:54.719Z,17.20
2019-04-25T01:26:23.970Z,17.30
2019-04-25T01:28:54.052Z,16.43
2019-04-25T01:31:24.895Z,20.07
2019-04-25T01:33:54.638Z,19.87
2019-04-25T01:36:41.801Z,17.50
2019-04-25T01:39:28.497Z,17.83
2019-04-25T01:41:58.789Z,15.43
2019-04-25T01:44:28.905Z,21.47
2019-04-25T01:46:58.228Z,18.63
2019-04-25T01:49:26.964Z,20.53
2019-04-25T01:51:57.465Z,17.70
2019-04-25T01:54:25.908Z,18.97
2019-04-25T01:56:56.116Z,18.23
2019-04-25T01:59:24.708Z,21.57
2019-04-25T02:01:54.573Z,22.07
2019-04-25T02:04:23.487Z,18.47
2019-04-25T02:06:54.331Z,14.77
2019-04-25T02:09:23.320Z,19.00
2019-04-25T02:11:54.765Z,20.90
2019-04-25T02:14:24.174Z,21.53
2019-04-25T02:16:55.043Z,17.23
2019-04-25T02:19:24.179Z,16.37
2019-04-25T02:21:55.102Z,19.83
2019-04-25T02:24:23.698Z,20.77
2019-04-25T02:26:54.820Z,18.40
2019-04-25T02:29:23.512Z,20.30
2019-04-25T02:31:54.679Z,19.47
2019-04-25T02:34:24.854Z,17.80
2019-04-25T02:36:55.546Z,20.30
2019-04-25T02:39:24.556Z,16.53
2019-04-25T02:41:56.016Z,20.73
2019-04-25T02:44:24.731Z,18.57
2019-04-25T02:47:00.523Z,22.43
2019-04-25T02:49:45.277Z,21.57
2019-04-25T02:52:21.376Z,19.53
2019-04-25T02:54:49.842Z,18.17
2019-04-25T02:57:18.305Z,18.33
2019-04-25T02:59:46.832Z,19.77
2019-04-25T03:02:36.766Z,20.37
2019-04-25T03:05:07.866Z,18.87
2019-04-25T03:07:35.894Z,18.97
2019-04-25T03:10:09.367Z,15.90
2019-04-25T03:12:37.517Z,18.27
2019-04-25T03:15:09.721Z,21.40
2019-04-25T03:17:36.979Z,18.83
2019-04-25T03:20:17.349Z,16.10
2019-04-25T03:22:45.904Z,18.77
2019-04-25T03:25:17.397Z,16.67
2019-04-25T03:27:44.924Z,21.17
2019-04-25T03:30:17.387Z,19.30
2019-04-25T03:32:45.028Z,23.43
2019-04-25T03:35:14.540Z,19.83
2019-04-25T03:37:43.630Z,17.77
2019-04-25T03:40:13.935Z,15.90
2019-04-25T03:42:43.893Z,21.00
2019-04-25T03:45:14.003Z,18.67
2019-04-25T03:47:43.223Z,22.30
2019-04-25T03:50:13.821Z,18.73
2019-04-25T03:52:43.571Z,21.20
2019-04-25T03:55:14.240Z,17.93
2019-04-25T03:57:44.300Z,19.47
2019-04-25T04:00:14.565Z,18.67
2019-04-25T04:02:44.289Z,18.53
2019-04-25T04:05:32.456Z,20.47
2019-04-25T04:08:00.912Z,21.03
2019-04-25T04:10:29.448Z,20.97
2019-04-25T04:12:58.716Z,17.63
2019-04-25T04:15:27.324Z,18.13
2019-04-25T04:18:14.657Z,23.60
2019-04-25T04:20:53.557Z,24.37
2019-04-25T04:23:26.455Z,20.20
2019-04-25T04:25:54.915Z,18.63
2019-04-25T04:28:23.663Z,20.67
2019-04-25T04:30:54.042Z,16.27
2019-04-25T04:33:30.212Z,24.30
2019-04-25T04:35:54.333Z,23.27
2019-04-25T04:38:24.086Z,23.10
2019-04-25T04:40:52.688Z,20.97
2019-04-25T04:43:21.181Z,21.53
2019-04-25T04:45:49.852Z,21.97
2019-04-25T04:48:18.867Z,19.30
2019-04-25T04:50:47.570Z,19.83
2019-04-25T04:53:17.147Z,23.20
2019-04-25T04:55:45.765Z,26.33
2019-04-25T04:58:14.996Z,22.70
2019-04-25T05:00:44.764Z,24.23
2019-04-25T05:03:34.305Z,23.10
2019-04-25T05:06:04.687Z,21.43
2019-04-25T05:08:37.331Z,17.90
2019-04-25T05:11:05.802Z,19.93
2019-04-25T05:13:34.379Z,20.43
2019-04-25T05:16:03.296Z,21.93
2019-04-25T05:18:37.563Z,19.97
2019-04-25T05:21:02.240Z,18.80
2019-04-25T05:23:30.709Z,22.87
2019-04-25T05:25:59.258Z,20.00
2019-04-25T05:28:27.831Z,27.37
2019-04-25T05:30:58.195Z,21.70
2019-04-25T05:33:26.677Z,22.27
2019-04-25T05:35:55.182Z,22.37
2019-04-25T05:38:24.319Z,20.60
2019-04-25T05:40:55.319Z,19.83
2019-04-25T05:43:25.813Z,27.33
2019-04-25T05:45:54.589Z,24.93
2019-04-25T05:48:25.043Z,18.40
2019-04-25T05:50:53.812Z,23.30
2019-04-25T05:53:23.872Z,20.60
2019-04-25T05:55:54.064Z,23.93
2019-04-25T05:58:24.585Z,20.50
2019-04-25T06:00:54.310Z,20.60
2019-04-25T06:03:24.855Z,21.50
2019-04-25T06:05:53.437Z,23.47
2019-04-25T06:08:26.448Z,22.77
2019-04-25T06:10:56.432Z,21.70
2019-04-25T06:13:35.480Z,22.83
2019-04-25T06:16:05.657Z,18.77
2019-04-25T06:18:35.776Z,21.10
2019-04-25T06:21:05.799Z,21.17
2019-04-25T06:23:54.480Z,18.87
2019-04-25T06:26:34.118Z,21.97
2019-04-25T06:28:59.032Z,24.80
2019-04-25T06:31:26.484Z,23.77
2019-04-25T06:33:54.307Z,24.23
2019-04-25T06:36:24.292Z,26.30
2019-04-25T06:38:54.168Z,26.23
2019-04-25T06:41:24.682Z,20.77
2019-04-25T06:43:54.756Z,22.43
2019-04-25T06:46:27.767Z,23.30
2019-04-25T06:48:58.372Z,20.40
2019-04-25T06:51:46.139Z,19.97
2019-04-25T06:54:14.744Z,23.37
2019-04-25T06:56:43.526Z,22.87
2019-04-25T06:59:13.594Z,24.97
2019-04-25T07:02:01.648Z,23.53
2019-04-25T07:04:30.166Z,20.40
2019-04-25T07:07:10.477Z,20.10
2019-04-25T07:09:34.517Z,20.00
2019-04-25T07:12:03.439Z,20.57
2019-04-25T07:14:33.861Z,20.27
2019-04-25T07:17:04.218Z,17.73
2019-04-25T07:19:34.304Z,21.90
2019-04-25T07:22:03.905Z,21.07
2019-04-25T07:24:35.185Z,19.23
2019-04-25T07:27:10.670Z,22.73
2019-04-25T07:29:56.040Z,25.27
2019-04-25T07:32:29.679Z,20.80
2019-04-25T07:34:56.390Z,22.13
2019-04-25T07:37:25.946Z,20.93
2019-04-25T07:39:54.648Z,23.20
2019-04-25T07:42:23.848Z,19.50
2019-04-25T07:44:54.933Z,24.60
2019-04-25T07:47:24.262Z,22.83
2019-04-25T07:49:54.136Z,26.37
2019-04-25T07:52:23.434Z,21.60
2019-04-25T07:54:52.038Z,25.43
2019-04-25T07:57:20.590Z,26.30
2019-04-25T07:59:51.574Z,20.87
2019-04-25T08:02:19.331Z,26.97
2019-04-25T08:04:47.971Z,25.40
2019-04-25T08:07:16.500Z,22.97
2019-04-25T08:09:45.028Z,24.13
2019-04-25T08:12:13.649Z,23.07
2019-04-25T08:14:45.900Z,21.97
2019-04-25T08:17:18.777Z,23.00
2019-04-25T08:19:47.578Z,24.10
2019-04-25T08:22:16.168Z,18.90
2019-04-25T08:24:45.223Z,24.43
2019-04-25T08:27:13.681Z,22.50
2019-04-25T08:29:42.216Z,19.80
2019-04-25T08:32:10.790Z,21.93
2019-04-25T08:34:39.414Z,19.93
2019-04-25T08:37:17.358Z,21.40
2019-04-25T08:39:57.500Z,28.50
2019-04-25T08:42:25.957Z,22.03
2019-04-25T08:44:54.413Z,28.60
2019-04-25T08:47:24.326Z,22.57
2019-04-25T08:49:54.607Z,23.27
2019-04-25T08:52:24.315Z,24.30
2019-04-25T08:55:00.441Z,23.40
2019-04-25T08:57:46.768Z,28.13
2019-04-25T09:00:18.068Z,21.50
2019-04-25T09:02:48.172Z,22.03
2019-04-25T09:05:19.192Z,21.90
2019-04-25T09:07:47.786Z,22.97
2019-04-25T09:10:16.251Z,21.27
2019-04-25T09:12:45.366Z,25.03
2019-04-25T09:15:15.024Z,24.10
2019-04-25T09:17:44.459Z,24.20
2019-04-25T09:20:14.378Z,28.00
2019-04-25T09:22:44.554Z,26.83
2019-04-25T09:25:34.541Z,23.83
2019-04-25T09:28:04.388Z,24.37
2019-04-25T09:30:34.959Z,26.67
2019-04-25T09:33:04.610Z,24.97
2019-04-25T09:35:33.569Z,21.30
2019-04-25T09:38:03.366Z,24.10
2019-04-25T09:40:32.153Z,27.27
2019-04-25T09:43:01.189Z,21.37
2019-04-25T09:45:31.356Z,26.07
2019-04-25T09:48:03.126Z,23.87
2019-04-25T09:50:39.677Z,25.20
2019-04-25T09:53:15.461Z,24.10
2019-04-25T09:55:47.183Z,25.40
2019-04-25T09:58:18.403Z,23.50
2019-04-25T10:00:48.670Z,24.37
2019-04-25T10:03:17.183Z,24.90
2019-04-25T10:05:46.808Z,27.03
2019-04-25T10:08:15.572Z,24.80
2019-04-25T10:10:44.650Z,24.07
2019-04-25T10:13:13.325Z,26.57
2019-04-25T10:15:51.137Z,32.50
2019-04-25T10:18:19.822Z,26.75
2019-04-25T10:20:49.423Z,29.67
2019-04-25T10:23:18.606Z,25.40
2019-04-25T10:25:48.415Z,24.75
2019-04-25T10:28:17.303Z,23.40
2019-04-25T10:30:46.850Z,23.80
2019-04-25T10:33:17.028Z,21.75
2019-04-25T10:35:51.987Z,26.17
2019-04-25T10:38:15.871Z,22.98
2019-04-25T10:40:47.400Z,23.95
2019-04-25T10:43:16.250Z,27.65
2019-04-25T10:45:46.312Z,21.95
2019-04-25T10:48:15.806Z,22.93
2019-04-25T10:50:45.934Z,21.40
2019-04-25T10:53:14.703Z,25.27
2019-04-25T10:55:44.066Z,26.73
2019-04-25T10:58:14.081Z,23.92
2019-04-25T11:00:46.205Z,22.95
2019-04-25T11:03:33.717Z,22.62
2019-04-25T11:06:03.925Z,23.62
2019-04-25T11:08:34.065Z,26.15
2019-04-25T11:11:24.148Z,22.73
2019-04-25T11:13:55.662Z,19.73
2019-04-25T11:16:24.347Z,24.45
2019-04-25T11:18:54.800Z,23.47
2019-04-25T11:21:24.307Z,23.57
2019-04-25T11:23:55.080Z,22.70
2019-04-25T11:26:23.542Z,22.22
2019-04-25T11:28:52.137Z,24.47
2019-04-25T11:31:23.506Z,22.93
2019-04-25T11:33:54.395Z,21.95
2019-04-25T11:36:24.808Z,30.05
2019-04-25T11:38:57.655Z,27.17
2019-04-25T11:41:26.268Z,33.33
2019-04-25T11:43:55.660Z,30.37
2019-04-25T11:46:25.156Z,27.13
2019-04-25T11:48:54.837Z,26.05
2019-04-25T11:51:24.145Z,27.55
2019-04-25T11:53:54.591Z,27.70
2019-04-25T11:56:24.135Z,40.10
2019-04-25T11:58:54.143Z,29.67
2019-04-25T12:01:24.372Z,31.05
2019-04-25T12:03:54.869Z,30.02
2019-04-25T12:06:24.316Z,32.78
2019-04-25T12:08:54.184Z,31.45
2019-04-25T12:11:23.653Z,31.90
2019-04-25T12:13:53.815Z,31.93
2019-04-25T12:16:24.527Z,32.03
2019-04-25T12:18:55.314Z,31.77
2019-04-25T12:21:23.969Z,27.82
2019-04-25T12:23:52.753Z,35.40
2019-04-25T12:26:21.290Z,30.43
2019-04-25T12:28:49.776Z,29.23
2019-04-25T12:31:18.346Z,27.95
2019-04-25T12:33:48.650Z,32.23
2019-04-25T12:36:17.239Z,32.35
2019-04-25T12:38:46.121Z,28.92
2019-04-25T12:41:14.679Z,30.68
2019-04-25T12:43:54.579Z,27.67
2019-04-25T12:46:34.622Z,32.05
2019-04-25T12:49:02.592Z,28.50
2019-04-25T12:51:31.129Z,29.35
2019-04-25T12:53:59.728Z,27.22
2019-04-25T12:56:28.233Z,28.95
2019-04-25T12:58:56.694Z,30.00
2019-04-25T13:01:25.247Z,31.50
2019-04-25T13:03:55.078Z,28.75
2019-04-25T13:06:23.938Z,30.90
2019-04-25T13:08:54.123Z,31.87
2019-04-25T13:11:23.939Z,31.30
2019-04-25T13:13:52.590Z,33.30
2019-04-25T13:16:21.152Z,33.88
2019-04-25T13:18:49.990Z,29.05
2019-04-25T13:21:18.590Z,32.03
2019-04-25T13:23:47.129Z,32.25
2019-04-25T13:26:17.355Z,30.50
2019-04-25T13:28:50.175Z,29.32
2019-04-25T13:31:26.346Z,30.62
2019-04-25T13:33:57.299Z,28.20
2019-04-25T13:36:25.987Z,26.73
2019-04-25T13:38:54.503Z,25.52
2019-04-25T13:41:23.574Z,30.77
2019-04-25T13:43:53.261Z,26.37
2019-04-25T13:46:25.862Z,24.67
2019-04-25T13:48:54.254Z,22.52
2019-04-25T13:51:24.494Z,19.40
2019-04-25T13:53:54.524Z,22.17
2019-04-25T13:56:25.874Z,17.73
2019-04-25T13:58:54.242Z,21.15
2019-04-25T14:01:24.661Z,24.23
2019-04-25T14:03:54.245Z,19.12
2019-04-25T14:06:23.926Z,23.50
2019-04-25T14:08:53.434Z,17.85
2019-04-25T14:11:23.970Z,19.60
2019-04-25T14:13:52.547Z,17.15
2019-04-25T14:16:26.755Z,14.73
2019-04-25T14:18:59.770Z,16.40
2019-04-25T14:21:29.239Z,15.58
2019-04-25T14:23:57.963Z,15.55
2019-04-25T14:26:27.076Z,19.85
2019-04-25T14:28:55.613Z,23.90
2019-04-25T14:31:41.260Z,14.98
2019-04-25T14:33:55.444Z,14.28
2019-04-25T14:36:25.796Z,11.95
2019-04-25T14:38:54.410Z,12.43
2019-04-25T14:41:23.807Z,12.95
2019-04-25T14:43:52.535Z,10.25
2019-04-25T14:46:21.267Z,12.35
2019-04-25T14:48:50.317Z,10.88
2019-04-25T14:51:18.974Z,9.78
2019-04-25T14:53:47.517Z,7.97
2019-04-25T14:56:26.670Z,6.75
2019-04-25T14:58:55.251Z,5.25
2019-04-25T15:01:24.449Z,6.20
2019-04-25T15:03:52.984Z,8.43
2019-04-25T15:06:21.676Z,6.42
2019-04-25T15:08:50.277Z,6.17
2019-04-25T15:11:18.842Z,5.92
2019-04-25T15:13:47.346Z,6.28
2019-04-25T15:16:15.821Z,7.10
2019-04-25T15:18:46.856Z,4.10
2019-04-25T15:21:14.651Z,4.40
2019-04-25T15:23:43.128Z,4.20
2019-04-25T15:26:11.591Z,2.87
2019-04-25T15:28:40.947Z,3.08
2019-04-25T15:31:09.569Z,3.02
2019-04-25T15:33:38.041Z,2.70
2019-04-25T15:36:08.514Z,3.02
2019-04-25T15:38:46.251Z,2.62
2019-04-25T15:41:19.586Z,3.65
2019-04-25T15:43:49.694Z,3.00
2019-04-25T15:46:22.726Z,2.87
2019-04-25T15:48:51.561Z,2.98
2019-04-25T15:51:20.180Z,3.17
2019-04-25T15:53:48.771Z,3.10
2019-04-25T15:56:17.483Z,3.10
2019-04-25T15:58:46.043Z,3.10
2019-04-25T16:01:14.534Z,2.83
2019-04-25T16:03:43.161Z,2.80
2019-04-25T16:06:11.787Z,2.20
2019-04-25T16:08:40.329Z,3.17
2019-04-25T16:11:08.962Z,1.75
2019-04-25T16:13:37.557Z,2.58
2019-04-25T16:16:06.439Z,2.45
2019-04-25T16:18:54.366Z,3.05
2019-04-25T16:21:22.905Z,2.65
2019-04-25T16:23:51.455Z,3.27
2019-04-25T16:26:20.200Z,3.10
2019-04-25T16:28:48.742Z,5.08
2019-04-25T16:31:19.197Z,6.78
2019-04-25T16:33:48.060Z,4.53
2019-04-25T16:36:16.927Z,4.67
2019-04-25T16:38:45.524Z,4.55
2019-04-25T16:41:14.637Z,4.80
2019-04-25T16:43:44.800Z,5.70
2019-04-25T16:46:14.631Z,6.03
2019-04-25T16:48:43.232Z,6.37
2019-04-25T16:51:12.029Z,3.58
2019-04-25T16:53:40.499Z,3.80
2019-04-25T16:56:09.372Z,5.35
2019-04-25T16:58:38.638Z,5.72
2019-04-25T17:01:09.067Z,6.75
2019-04-25T17:03:37.803Z,8.55
2019-04-25T17:06:06.610Z,8.15
2019-04-25T17:08:35.697Z,7.12
2019-04-25T17:11:05.940Z,7.83
2019-04-25T17:13:36.271Z,7.60
2019-04-25T17:16:18.727Z,6.75
2019-04-25T17:18:51.792Z,7.33
2019-04-25T17:21:20.313Z,7.92
2019-04-25T17:23:48.838Z,7.47
2019-04-25T17:26:18.837Z,8.88
2019-04-25T17:28:49.078Z,8.75
2019-04-25T17:34:16.638Z,11.30
2019-04-25T17:36:52.959Z,12.07
2019-04-25T17:39:23.189Z,12.45
2019-04-25T17:41:51.693Z,11.43
2019-04-25T17:44:20.181Z,12.43
2019-04-25T17:46:48.809Z,11.80
2019-04-25T17:49:17.367Z,11.38
2019-04-25T17:51:45.841Z,12.18
2019-04-25T17:54:14.515Z,12.90
2019-04-25T17:56:43.083Z,11.43
2019-04-25T17:59:11.575Z,11.50
2019-04-25T18:01:40.227Z,11.33
2019-04-25T18:04:08.838Z,10.43
2019-04-25T18:06:37.686Z,12.03
2019-04-25T18:09:07.513Z,9.97
2019-04-25T18:11:36.222Z,10.60
2019-04-25T18:14:05.019Z,12.87
2019-04-25T18:16:38.203Z,14.07
2019-04-25T18:19:08.516Z,15.40
2019-04-25T18:21:37.086Z,12.60
2019-04-25T18:24:19.819Z,10.67
2019-04-25T18:26:58.980Z,12.37
2019-04-25T18:29:27.627Z,11.10
2019-04-25T18:31:56.133Z,11.13
2019-04-25T18:34:26.522Z,11.87
2019-04-25T18:37:11.478Z,16.37
2019-04-25T18:39:41.980Z,16.20
2019-04-25T18:42:12.325Z,11.33
2019-04-25T18:44:41.943Z,12.23
2019-04-25T18:47:10.459Z,10.83
2019-04-25T18:49:40.436Z,12.73
2019-04-25T18:52:10.773Z,12.23
2019-04-25T18:54:52.958Z,14.73
2019-04-25T18:57:29.197Z,11.97
2019-04-25T18:59:59.313Z,13.23
2019-04-25T19:02:35.645Z,11.77
2019-04-25T19:05:22.411Z,12.20
2019-04-25T19:07:51.792Z,17.93
2019-04-25T19:10:20.616Z,15.00
2019-04-25T19:12:49.182Z,16.53
2019-04-25T19:15:17.857Z,15.20
2019-04-25T19:17:47.309Z,14.47
2019-04-25T19:20:16.096Z,15.07
2019-04-25T19:22:44.564Z,13.37
2019-04-25T19:25:13.279Z,14.80
2019-04-25T19:27:42.092Z,16.00
2019-04-25T19:30:12.725Z,16.00
2019-04-25T19:32:41.686Z,13.43
2019-04-25T19:35:11.189Z,15.43
2019-04-25T19:37:40.526Z,17.43
2019-04-25T19:40:23.310Z,16.30
2019-04-25T19:43:03.391Z,18.93
2019-04-25T19:45:33.366Z,18.33
2019-04-25T19:48:02.019Z,15.23
2019-04-25T19:50:30.630Z,16.87
2019-04-25T19:52:59.217Z,18.93
2019-04-25T19:55:27.694Z,17.43
2019-04-25T19:57:56.238Z,15.47
2019-04-25T20:00:24.916Z,16.73
2019-04-25T20:02:57.792Z,17.73
2019-04-25T20:05:30.816Z,21.07
2019-04-25T20:08:14.612Z,19.03
2019-04-25T20:10:45.082Z,17.37
2019-04-25T20:13:13.783Z,20.53
2019-04-25T20:15:44.057Z,20.93
2019-04-25T20:18:14.252Z,23.00
2019-04-25T20:20:43.624Z,25.70
2019-04-25T20:23:12.951Z,27.03
2019-04-25T20:25:41.478Z,26.33
2019-04-25T20:28:09.980Z,25.57
2019-04-25T20:30:38.602Z,22.60
2019-04-25T20:33:07.181Z,24.77
2019-04-25T20:35:35.743Z,26.40
2019-04-25T20:38:04.537Z,33.27
2019-04-25T20:40:33.057Z,32.50
2019-04-25T20:43:01.601Z,28.07
2019-04-25T20:45:30.346Z,28.97
2019-04-25T20:47:58.943Z,27.23
2019-04-25T20:50:27.480Z,30.03
2019-04-25T20:52:55.944Z,34.17
2019-04-25T20:55:24.455Z,33.27
2019-04-25T20:57:53.273Z,35.20
2019-04-25T21:00:43.939Z,31.17
2019-04-25T21:03:12.587Z,33.47
2019-04-25T21:05:41.477Z,35.27
2019-04-25T21:08:10.070Z,35.63
2019-04-25T21:10:38.615Z,31.30
2019-04-25T21:13:08.784Z,32.33
2019-04-25T21:15:54.416Z,38.67
2019-04-25T21:18:30.655Z,40.30
2019-04-25T21:20:59.241Z,41.00
2019-04-25T21:23:27.789Z,46.07
2019-04-25T21:25:56.954Z,42.83
2019-04-25T21:28:25.702Z,46.10
2019-04-25T21:30:54.789Z,43.67
2019-04-25T21:33:23.426Z,45.57
2019-04-25T21:35:53.257Z,42.37
2019-04-25T21:38:22.120Z,44.30
2019-04-25T21:40:53.023Z,44.30
2019-04-25T21:43:27.440Z,46.60
2019-04-25T21:45:56.273Z,46.57
2019-04-25T21:48:25.160Z,46.63
2019-04-25T21:50:54.976Z,42.20
2019-04-25T21:53:23.470Z,46.97
2019-04-25T21:55:53.227Z,48.33
2019-04-25T21:58:22.432Z,46.40
2019-04-25T22:00:56.578Z,48.53
2019-04-25T22:03:26.675Z,48.90
2019-04-25T22:05:56.730Z,50.43
2019-04-25T22:08:25.598Z,45.83
2019-04-25T22:10:55.806Z,51.87
2019-04-25T22:13:24.960Z,50.03
2019-04-25T22:15:53.835Z,44.57
2019-04-25T22:18:43.058Z,48.33
2019-04-25T22:21:12.046Z,50.33
2019-04-25T22:23:41.065Z,48.37
2019-04-25T22:26:09.955Z,49.53
2019-04-25T22:28:38.930Z,49.23
2019-04-25T22:31:09.422Z,47.87
2019-04-25T22:33:55.595Z,52.57
2019-04-25T22:36:27.925Z,48.93
2019-04-25T22:39:12.244Z,54.27
2019-04-25T22:41:46.456Z,52.07
2019-04-25T22:44:16.029Z,55.77
2019-04-25T22:46:45.011Z,59.63
2019-04-25T22:49:13.714Z,53.17
2019-04-25T22:51:42.171Z,53.20
2019-04-25T22:54:11.786Z,57.97
2019-04-25T22:56:40.580Z,53.47
2019-04-25T22:59:09.474Z,61.17
2019-04-25T23:01:51.596Z,53.83
2019-04-25T23:04:38.253Z,56.43
2019-04-25T23:07:10.096Z,58.30
2019-04-25T23:09:39.232Z,56.37
2019-04-25T23:12:08.712Z,55.53
2019-04-25T23:14:37.774Z,58.63
2019-04-25T23:17:07.344Z,54.57
2019-04-25T23:19:35.888Z,56.07
2019-04-25T23:22:05.638Z,55.10
2019-04-25T23:24:35.834Z,58.43
2019-04-25T23:27:09.838Z,57.40
2019-04-25T23:29:38.618Z,55.10
2019-04-25T23:32:08.494Z,52.33
2019-04-25T23:34:37.131Z,56.63
2019-04-25T23:37:06.276Z,53.90
2019-04-25T23:39:35.929Z,60.83
2019-04-25T23:42:05.947Z,60.63
2019-04-25T23:44:34.712Z,51.67
2019-04-25T23:47:03.536Z,59.43
2019-04-25T23:49:32.126Z,53.87
2019-04-25T23:52:00.862Z,53.87
2019-04-25T23:54:29.344Z,53.37
2019-04-25T23:56:58.252Z,53.33
2019-04-25T23:59:27.055Z,53.97
